createdAt,value
2019-05-16T00:00:25.341Z,2.60
2019-05-16T00:02:58.645Z,2.40
2019-05-16T00:05:28.126Z,2.67
2019-05-16T00:07:59.049Z,2.70
2019-05-16T00:10:28.675Z,2.80
2019-05-16T00:12:59.676Z,2.50
2019-05-16T00:15:28.932Z,2.90
2019-05-16T00:18:03.453Z,2.70
2019-05-16T00:20:33.460Z,3.27
2019-05-16T00:23:02.570Z,3.00
2019-05-16T00:25:31.616Z,3.20
2019-05-16T00:28:02.720Z,3.33
2019-05-16T00:30:31.500Z,2.60
2019-05-16T00:33:02.207Z,3.63
2019-05-16T00:35:31.257Z,3.20
2019-05-16T00:38:03.439Z,3.03
2019-05-16T00:40:35.188Z,3.50
2019-05-16T00:43:08.039Z,3.13
2019-05-16T00:45:38.525Z,3.37
2019-05-16T00:48:09.060Z,3.87
2019-05-16T00:50:41.603Z,3.40
2019-05-16T00:53:14.907Z,3.87
2019-05-16T00:55:48.075Z,3.77
2019-05-16T00:58:19.006Z,3.20
2019-05-16T01:00:51.376Z,2.93
2019-05-16T01:03:23.486Z,3.67
2019-05-16T01:05:52.617Z,3.20
2019-05-16T01:08:21.711Z,4.03
2019-05-16T01:10:51.446Z,4.03
2019-05-16T01:13:23.041Z,4.30
2019-05-16T01:15:57.926Z,3.70
2019-05-16T01:18:28.827Z,2.97
2019-05-16T01:20:58.619Z,3.40
2019-05-16T01:23:32.331Z,3.30
2019-05-16T01:26:01.630Z,3.63
2019-05-16T01:28:33.321Z,4.90
2019-05-16T01:31:02.546Z,3.97
2019-05-16T01:33:31.592Z,4.20
2019-05-16T01:36:00.639Z,3.87
2019-05-16T01:38:30.874Z,4.60
2019-05-16T01:40:59.935Z,4.40
2019-05-16T01:43:28.988Z,4.13
2019-05-16T01:45:59.912Z,4.20
2019-05-16T01:48:29.381Z,4.37
2019-05-16T01:50:58.699Z,4.40
2019-05-16T01:53:28.195Z,4.03
2019-05-16T01:56:01.680Z,4.10
2019-05-16T01:58:30.917Z,3.97
2019-05-16T02:01:11.555Z,4.40
2019-05-16T02:03:34.035Z,4.10
2019-05-16T02:06:04.082Z,4.30
2019-05-16T02:08:33.265Z,4.00
2019-05-16T02:11:02.346Z,4.20
2019-05-16T02:13:32.294Z,4.30
2019-05-16T02:16:01.418Z,4.27
2019-05-16T02:18:31.472Z,4.67
2019-05-16T02:21:01.293Z,4.03
2019-05-16T02:23:30.668Z,3.77
2019-05-16T02:26:01.807Z,3.80
2019-05-16T02:28:40.215Z,3.73
2019-05-16T02:31:03.687Z,3.70
2019-05-16T02:33:32.770Z,4.07
2019-05-16T02:36:04.874Z,4.30
2019-05-16T02:38:34.453Z,4.10
2019-05-16T02:41:03.678Z,4.87
2019-05-16T02:43:32.799Z,4.57
2019-05-16T02:46:04.587Z,4.60
2019-05-16T02:48:35.739Z,4.37
2019-05-16T02:51:05.145Z,4.10
2019-05-16T02:53:34.238Z,4.00
2019-05-16T02:56:06.228Z,5.00
2019-05-16T02:58:35.370Z,4.80
2019-05-16T03:01:04.534Z,4.37
2019-05-16T03:03:33.666Z,3.67
2019-05-16T03:06:05.624Z,4.00
2019-05-16T03:08:35.041Z,4.67
2019-05-16T03:11:06.456Z,3.30
2019-05-16T03:13:38.080Z,4.00
2019-05-16T03:16:12.650Z,4.13
2019-05-16T03:18:41.851Z,4.37
2019-05-16T03:21:13.492Z,4.27
2019-05-16T03:23:42.975Z,4.57
2019-05-16T03:26:13.640Z,4.77
2019-05-16T03:28:47.161Z,3.53
2019-05-16T03:31:16.266Z,4.13
2019-05-16T03:33:52.218Z,3.93
2019-05-16T03:36:24.253Z,3.33
2019-05-16T03:38:50.699Z,3.47
2019-05-16T03:41:21.836Z,3.43
2019-05-16T03:43:51.111Z,3.93
2019-05-16T03:46:21.519Z,4.40
2019-05-16T03:48:52.211Z,4.23
2019-05-16T03:51:21.910Z,4.10
2019-05-16T03:53:53.158Z,4.23
2019-05-16T03:56:24.922Z,3.90
2019-05-16T03:58:54.020Z,4.70
2019-05-16T04:01:23.096Z,3.63
2019-05-16T04:03:52.146Z,4.27
2019-05-16T04:06:22.114Z,3.70
2019-05-16T04:08:52.212Z,4.67
2019-05-16T04:11:23.582Z,3.87
2019-05-16T04:13:52.890Z,4.77
2019-05-16T04:16:22.107Z,4.27
2019-05-16T04:18:51.640Z,3.90
2019-05-16T04:21:21.835Z,3.47
2019-05-16T04:23:51.299Z,3.77
2019-05-16T04:26:23.623Z,3.27
2019-05-16T04:28:52.675Z,4.27
2019-05-16T04:31:23.169Z,4.20
2019-05-16T04:33:55.776Z,3.77
2019-05-16T04:36:26.404Z,4.30
2019-05-16T04:38:55.432Z,3.70
2019-05-16T04:41:26.074Z,4.03
2019-05-16T04:43:55.177Z,4.37
2019-05-16T04:46:24.268Z,4.13
2019-05-16T04:48:55.730Z,3.83
2019-05-16T04:51:24.801Z,3.93
2019-05-16T04:53:55.927Z,4.00
2019-05-16T04:56:26.764Z,4.63
2019-05-16T04:58:57.051Z,4.60
2019-05-16T05:01:30.502Z,4.60
2019-05-16T05:04:09.689Z,4.83
2019-05-16T05:06:31.327Z,4.27
2019-05-16T05:09:04.747Z,4.20
2019-05-16T05:11:33.920Z,4.00
2019-05-16T05:14:03.055Z,4.67
2019-05-16T05:16:32.677Z,4.33
2019-05-16T05:19:11.133Z,5.10
2019-05-16T05:21:41.500Z,4.10
2019-05-16T05:24:16.395Z,5.20
2019-05-16T05:26:45.681Z,5.33
2019-05-16T05:29:20.012Z,4.27
2019-05-16T05:31:54.668Z,3.80
2019-05-16T05:34:22.905Z,4.40
2019-05-16T05:36:53.717Z,4.77
2019-05-16T05:39:23.977Z,4.80
2019-05-16T05:41:53.060Z,5.87
2019-05-16T05:44:24.101Z,4.33
2019-05-16T05:47:01.764Z,4.73
2019-05-16T05:49:30.917Z,4.87
2019-05-16T05:52:00.926Z,4.57
2019-05-16T05:54:30.816Z,5.27
2019-05-16T05:57:00.682Z,4.47
2019-05-16T05:59:36.521Z,7.30
2019-05-16T06:02:11.049Z,6.90
2019-05-16T06:04:41.878Z,5.80
2019-05-16T06:07:11.259Z,4.97
2019-05-16T06:09:52.836Z,5.03
2019-05-16T06:12:11.893Z,6.10
2019-05-16T06:14:44.621Z,6.50
2019-05-16T06:17:13.797Z,5.00
2019-05-16T06:19:42.869Z,6.50
2019-05-16T06:22:11.954Z,6.53
2019-05-16T06:24:42.873Z,6.37
2019-05-16T06:27:11.974Z,6.90
2019-05-16T06:29:41.044Z,6.50
2019-05-16T06:32:11.302Z,6.13
2019-05-16T06:34:50.766Z,6.33
2019-05-16T06:37:21.187Z,6.93
2019-05-16T06:39:52.764Z,6.30
2019-05-16T06:42:22.603Z,6.23
2019-05-16T06:44:55.132Z,7.50
2019-05-16T06:47:26.215Z,6.17
2019-05-16T06:49:55.396Z,8.00
2019-05-16T06:52:24.493Z,7.23
2019-05-16T06:54:55.602Z,9.10
2019-05-16T06:57:30.401Z,7.47
2019-05-16T07:00:04.610Z,8.00
2019-05-16T07:02:36.850Z,7.10
2019-05-16T07:05:11.735Z,8.10
2019-05-16T07:07:40.833Z,9.03
2019-05-16T07:10:10.207Z,9.00
2019-05-16T07:12:44.598Z,8.93
2019-05-16T07:15:14.116Z,8.87
2019-05-16T07:17:50.446Z,8.47
2019-05-16T07:20:22.982Z,9.17
2019-05-16T07:22:52.080Z,8.40
2019-05-16T07:25:21.657Z,10.77
2019-05-16T07:27:51.319Z,9.13
2019-05-16T07:30:22.310Z,8.47
2019-05-16T07:32:51.667Z,8.87
2019-05-16T07:35:24.330Z,7.73
2019-05-16T07:37:56.736Z,7.80
2019-05-16T07:40:27.008Z,7.33
2019-05-16T07:42:56.627Z,7.70
2019-05-16T07:45:25.701Z,8.23
2019-05-16T07:47:54.971Z,8.20
2019-05-16T07:50:25.123Z,8.03
2019-05-16T07:52:59.884Z,8.60
2019-05-16T07:55:31.008Z,7.83
2019-05-16T07:58:00.400Z,9.10
2019-05-16T08:00:47.643Z,7.97
2019-05-16T08:03:00.653Z,8.73
2019-05-16T08:05:33.547Z,8.57
2019-05-16T08:08:05.604Z,8.47
2019-05-16T08:10:42.003Z,8.23
2019-05-16T08:13:05.544Z,7.50
2019-05-16T08:15:34.708Z,7.50
2019-05-16T08:18:05.531Z,7.20
2019-05-16T08:20:36.800Z,7.47
2019-05-16T08:23:11.113Z,7.47
2019-05-16T08:25:41.825Z,7.47
2019-05-16T08:28:11.853Z,8.00
2019-05-16T08:30:41.339Z,6.90
2019-05-16T08:33:13.624Z,7.63
2019-05-16T08:35:41.579Z,7.07
2019-05-16T08:38:13.588Z,6.60
2019-05-16T08:41:04.430Z,6.80
2019-05-16T08:43:17.118Z,7.07
2019-05-16T08:45:46.183Z,7.03
2019-05-16T08:48:15.597Z,6.53
2019-05-16T08:50:51.377Z,6.20
2019-05-16T08:53:17.079Z,6.73
2019-05-16T08:55:50.614Z,7.13
2019-05-16T08:58:33.171Z,6.97
2019-05-16T09:01:03.330Z,5.73
2019-05-16T09:03:35.511Z,7.17
2019-05-16T09:06:11.792Z,6.60
2019-05-16T09:08:49.718Z,6.50
2019-05-16T09:11:39.251Z,6.67
2019-05-16T09:13:50.823Z,6.63
2019-05-16T09:16:30.144Z,7.60
2019-05-16T09:18:57.727Z,7.30
2019-05-16T09:21:27.633Z,7.40
2019-05-16T09:23:57.870Z,7.60
2019-05-16T09:26:28.283Z,7.77
2019-05-16T09:28:57.715Z,7.63
2019-05-16T09:31:28.103Z,6.73
2019-05-16T09:34:04.243Z,6.93
2019-05-16T09:36:37.421Z,6.20
2019-05-16T09:39:09.833Z,6.50
2019-05-16T09:41:50.554Z,7.17
2019-05-16T09:44:18.335Z,6.00
2019-05-16T09:46:47.208Z,6.70
2019-05-16T09:49:28.752Z,7.67
2019-05-16T09:51:57.373Z,6.07
2019-05-16T09:54:27.414Z,8.03
2019-05-16T09:56:57.268Z,7.33
2019-05-16T09:59:26.507Z,6.67
2019-05-16T10:01:57.136Z,6.23
2019-05-16T10:04:27.936Z,7.07
2019-05-16T10:06:59.284Z,5.40
2019-05-16T10:09:41.225Z,5.80
2019-05-16T10:12:11.434Z,5.53
2019-05-16T10:14:37.777Z,5.73
2019-05-16T10:17:08.244Z,6.40
2019-05-16T10:19:37.787Z,7.23
2019-05-16T10:22:07.425Z,6.70
2019-05-16T10:24:37.543Z,7.10
2019-05-16T10:27:06.901Z,6.87
2019-05-16T10:29:37.795Z,6.27
2019-05-16T10:32:09.805Z,6.40
2019-05-16T10:34:38.934Z,7.17
2019-05-16T10:37:08.082Z,7.50
2019-05-16T10:39:38.287Z,7.10
2019-05-16T10:42:23.789Z,5.50
2019-05-16T10:44:44.536Z,5.90
2019-05-16T10:47:17.381Z,7.43
2019-05-16T10:49:51.369Z,6.73
2019-05-16T10:52:20.430Z,6.80
2019-05-16T10:54:58.032Z,7.00
2019-05-16T10:57:22.445Z,5.73
2019-05-16T11:00:12.975Z,6.00
2019-05-16T11:02:38.933Z,7.30
2019-05-16T11:05:25.793Z,7.53
2019-05-16T11:07:44.163Z,7.10
2019-05-16T11:10:17.156Z,7.77
2019-05-16T11:12:54.828Z,6.43
2019-05-16T11:15:20.585Z,7.43
2019-05-16T11:17:52.155Z,7.03
2019-05-16T11:20:21.519Z,7.53
2019-05-16T11:22:50.796Z,6.67
2019-05-16T11:25:28.663Z,5.97
2019-05-16T11:27:54.123Z,6.40
2019-05-16T11:30:28.225Z,6.97
2019-05-16T11:33:00.238Z,6.53
2019-05-16T11:35:30.007Z,6.90
2019-05-16T11:38:00.947Z,6.93
2019-05-16T11:40:31.938Z,7.20
2019-05-16T11:43:14.685Z,7.10
2019-05-16T11:45:40.107Z,6.97
2019-05-16T11:48:10.817Z,8.00
2019-05-16T11:50:40.237Z,7.27
2019-05-16T11:53:09.343Z,6.77
2019-05-16T11:55:51.801Z,6.57
2019-05-16T11:58:10.911Z,7.50
2019-05-16T12:00:40.133Z,6.57
2019-05-16T12:03:09.792Z,5.83
2019-05-16T12:05:41.085Z,6.40
2019-05-16T12:08:11.152Z,7.20
2019-05-16T12:10:44.119Z,7.00
2019-05-16T12:13:25.157Z,7.10
2019-05-16T12:15:45.790Z,6.70
2019-05-16T12:18:17.356Z,7.30
2019-05-16T12:20:46.838Z,5.40
2019-05-16T12:23:17.275Z,7.17
2019-05-16T12:25:47.640Z,6.20
2019-05-16T12:28:17.142Z,5.17
2019-05-16T12:30:49.360Z,6.10
2019-05-16T12:33:23.092Z,6.60
2019-05-16T12:35:53.901Z,6.27
2019-05-16T12:38:28.757Z,6.00
2019-05-16T12:41:00.983Z,6.43
2019-05-16T12:43:49.518Z,7.30
2019-05-16T12:46:15.144Z,7.50
2019-05-16T12:48:57.563Z,5.90
2019-05-16T12:51:29.591Z,5.73
2019-05-16T12:53:58.668Z,7.30
2019-05-16T12:56:28.134Z,6.43
2019-05-16T12:59:03.289Z,6.50
2019-05-16T13:01:38.372Z,6.20
2019-05-16T13:04:05.689Z,5.80
2019-05-16T13:06:37.092Z,6.30
2019-05-16T13:09:07.881Z,6.20
2019-05-16T13:11:42.744Z,5.73
2019-05-16T13:14:17.105Z,6.00
2019-05-16T13:16:51.662Z,6.40
2019-05-16T13:19:23.410Z,6.40
2019-05-16T13:21:52.632Z,6.50
2019-05-16T13:24:21.786Z,5.70
2019-05-16T13:26:50.868Z,6.47
2019-05-16T13:29:19.959Z,5.33
2019-05-16T13:31:50.940Z,5.70
2019-05-16T13:34:30.680Z,5.90
2019-05-16T13:36:59.719Z,5.90
2019-05-16T13:39:28.835Z,5.10
2019-05-16T13:42:00.130Z,6.43
2019-05-16T13:44:30.237Z,5.57
2019-05-16T13:46:59.335Z,5.00
2019-05-16T13:49:28.442Z,5.67
2019-05-16T13:52:00.958Z,6.50
2019-05-16T13:54:30.156Z,6.50
2019-05-16T13:56:59.289Z,5.30
2019-05-16T13:59:30.166Z,5.33
2019-05-16T14:01:59.527Z,4.27
2019-05-16T14:04:28.660Z,4.50
2019-05-16T14:07:08.450Z,5.53
2019-05-16T14:09:37.941Z,4.87
2019-05-16T14:12:08.812Z,4.77
2019-05-16T14:14:42.283Z,4.90
2019-05-16T14:17:18.678Z,5.17
2019-05-16T14:19:48.234Z,4.37
2019-05-16T14:22:19.786Z,4.63
2019-05-16T14:24:52.847Z,4.43
2019-05-16T14:27:23.338Z,3.60
2019-05-16T14:29:57.896Z,3.50
2019-05-16T14:32:39.296Z,3.50
2019-05-16T14:35:03.170Z,3.47
2019-05-16T14:37:32.378Z,3.03
2019-05-16T14:40:06.665Z,2.87
2019-05-16T14:42:38.790Z,3.93
2019-05-16T14:45:18.251Z,4.10
2019-05-16T14:47:49.854Z,3.53
2019-05-16T14:50:27.518Z,4.07
2019-05-16T14:52:59.607Z,4.03
2019-05-16T14:55:30.188Z,4.30
2019-05-16T14:58:07.337Z,3.07
2019-05-16T15:00:50.002Z,3.93
2019-05-16T15:03:23.419Z,4.20
2019-05-16T15:05:55.477Z,3.67
2019-05-16T15:08:24.007Z,3.80
2019-05-16T15:10:53.200Z,3.97
2019-05-16T15:13:22.391Z,4.80
2019-05-16T15:15:51.501Z,4.63
2019-05-16T15:18:23.352Z,5.37
2019-05-16T15:20:52.413Z,4.20
2019-05-16T15:23:21.701Z,5.40
2019-05-16T15:25:50.963Z,4.63
2019-05-16T15:28:29.987Z,3.97
2019-05-16T15:31:00.041Z,4.40
2019-05-16T15:33:29.123Z,4.73
2019-05-16T15:35:58.212Z,5.03
2019-05-16T15:38:29.937Z,5.27
2019-05-16T15:41:00.451Z,4.53
2019-05-16T15:43:38.802Z,3.90
2019-05-16T15:46:08.580Z,4.93
2019-05-16T15:48:40.167Z,5.60
2019-05-16T15:51:09.372Z,4.57
2019-05-16T15:53:40.298Z,3.93
2019-05-16T15:56:10.324Z,4.10
2019-05-16T15:58:46.642Z,4.23
2019-05-16T16:01:18.581Z,4.80
2019-05-16T16:03:49.431Z,5.63
2019-05-16T16:06:18.488Z,4.80
2019-05-16T16:08:47.857Z,4.27
2019-05-16T16:11:18.011Z,4.87
2019-05-16T16:13:49.843Z,5.10
2019-05-16T16:16:20.108Z,5.43
2019-05-16T16:18:49.333Z,5.70
2019-05-16T16:21:18.813Z,4.90
2019-05-16T16:23:51.820Z,4.50
2019-05-16T16:26:26.683Z,4.43
2019-05-16T16:28:56.743Z,4.93
2019-05-16T16:31:28.978Z,4.70
2019-05-16T16:33:58.093Z,5.30
2019-05-16T16:36:33.586Z,4.13
2019-05-16T16:39:07.497Z,3.93
2019-05-16T16:41:37.069Z,4.93
2019-05-16T16:44:08.398Z,4.20
2019-05-16T16:46:37.744Z,4.40
2019-05-16T16:49:07.478Z,4.67
2019-05-16T16:51:37.662Z,4.40
2019-05-16T16:54:07.606Z,4.83
2019-05-16T16:56:38.489Z,5.07
2019-05-16T16:59:17.548Z,3.90
2019-05-16T17:01:49.685Z,4.60
2019-05-16T17:04:21.988Z,3.70
2019-05-16T17:06:52.500Z,4.20
2019-05-16T17:09:21.845Z,4.27
2019-05-16T17:11:57.107Z,4.33
2019-05-16T17:14:30.247Z,4.70
2019-05-16T17:17:00.715Z,4.13
2019-05-16T17:19:29.738Z,4.43
2019-05-16T17:22:13.564Z,4.00
2019-05-16T17:24:33.288Z,3.53
2019-05-16T17:27:07.559Z,4.10
2019-05-16T17:29:36.861Z,3.80
2019-05-16T17:32:09.929Z,4.47
2019-05-16T17:34:40.748Z,3.90
2019-05-16T17:37:14.042Z,4.70
2019-05-16T17:39:43.070Z,4.53
2019-05-16T17:42:13.308Z,3.67
2019-05-16T17:44:47.379Z,3.10
2019-05-16T17:47:18.981Z,3.93
2019-05-16T17:49:49.578Z,4.17
2019-05-16T17:52:21.231Z,3.30
2019-05-16T17:54:53.174Z,4.17
2019-05-16T17:57:21.220Z,4.50
2019-05-16T17:59:50.665Z,3.70
2019-05-16T18:02:23.605Z,3.37
2019-05-16T18:04:52.520Z,4.20
2019-05-16T18:07:21.730Z,3.67
2019-05-16T18:09:50.777Z,3.63
2019-05-16T18:12:20.907Z,4.10
2019-05-16T18:14:51.762Z,4.20
2019-05-16T18:17:21.229Z,3.70
2019-05-16T18:19:51.842Z,3.50
2019-05-16T18:22:21.105Z,3.63
2019-05-16T18:24:50.186Z,3.77
2019-05-16T18:27:20.904Z,4.07
2019-05-16T18:29:50.444Z,3.43
2019-05-16T18:32:20.982Z,3.53
2019-05-16T18:34:53.181Z,3.87
2019-05-16T18:37:23.333Z,3.80
2019-05-16T18:39:53.306Z,3.90
2019-05-16T18:42:22.371Z,3.80
2019-05-16T18:44:51.508Z,3.90
2019-05-16T18:47:20.579Z,3.47
2019-05-16T18:49:51.229Z,3.60
2019-05-16T18:52:22.362Z,4.60
2019-05-16T18:54:51.617Z,3.50
2019-05-16T18:57:20.745Z,3.33
2019-05-16T18:59:49.871Z,3.23
2019-05-16T19:02:18.943Z,4.13
2019-05-16T19:04:57.896Z,4.30
2019-05-16T19:07:28.356Z,4.50
2019-05-16T19:09:57.468Z,4.43
2019-05-16T19:12:28.165Z,4.27
2019-05-16T19:15:00.185Z,4.63
2019-05-16T19:17:28.566Z,5.97
2019-05-16T19:19:57.756Z,5.20
2019-05-16T19:22:47.433Z,4.80
2019-05-16T19:25:22.467Z,5.03
2019-05-16T19:27:51.658Z,5.57
2019-05-16T19:30:21.038Z,5.00
2019-05-16T19:32:50.852Z,6.03
2019-05-16T19:35:22.181Z,5.30
2019-05-16T19:37:54.076Z,5.37
2019-05-16T19:40:23.409Z,5.83
2019-05-16T19:42:56.560Z,5.23
2019-05-16T19:45:26.434Z,5.13
2019-05-16T19:47:57.832Z,6.60
2019-05-16T19:50:29.114Z,5.80
2019-05-16T19:52:59.627Z,5.87
2019-05-16T19:55:29.729Z,4.97
2019-05-16T19:58:00.569Z,5.67
2019-05-16T20:00:31.515Z,5.83
2019-05-16T20:03:02.120Z,5.43
2019-05-16T20:05:37.817Z,5.80
2019-05-16T20:08:07.206Z,5.00
2019-05-16T20:10:39.225Z,5.77
2019-05-16T20:13:11.894Z,6.00
2019-05-16T20:15:41.717Z,6.27
2019-05-16T20:18:11.053Z,5.17
2019-05-16T20:20:40.160Z,6.13
2019-05-16T20:23:09.349Z,6.20
2019-05-16T20:25:38.817Z,6.33
2019-05-16T20:28:10.854Z,6.57
2019-05-16T20:30:40.047Z,6.77
2019-05-16T20:33:09.659Z,6.63
2019-05-16T20:35:42.125Z,7.00
2019-05-16T20:38:11.531Z,5.40
2019-05-16T20:40:41.112Z,5.00
2019-05-16T20:43:13.349Z,5.23
2019-05-16T20:45:49.548Z,4.80
2019-05-16T20:48:18.837Z,5.53
2019-05-16T20:50:50.969Z,5.60
2019-05-16T20:53:23.423Z,5.40
2019-05-16T20:55:52.819Z,4.50
2019-05-16T20:58:23.197Z,5.43
2019-05-16T21:00:52.588Z,6.20
2019-05-16T21:03:27.212Z,6.03
2019-05-16T21:05:58.133Z,5.93
2019-05-16T21:08:27.293Z,5.20
2019-05-16T21:10:57.303Z,5.60
2019-05-16T21:13:28.220Z,6.00
2019-05-16T21:15:57.761Z,5.97
2019-05-16T21:18:27.043Z,5.97
2019-05-16T21:20:59.897Z,6.50
2019-05-16T21:23:36.447Z,5.90
2019-05-16T21:26:03.844Z,6.60
2019-05-16T21:28:42.521Z,6.00
2019-05-16T21:31:12.081Z,6.33
2019-05-16T21:33:41.163Z,6.50
2019-05-16T21:36:13.671Z,6.13
2019-05-16T21:38:42.799Z,6.00
2019-05-16T21:41:11.879Z,6.70
2019-05-16T21:43:40.943Z,6.10
2019-05-16T21:46:10.005Z,7.17
2019-05-16T21:48:39.078Z,6.90
2019-05-16T21:51:08.163Z,6.60
2019-05-16T21:53:37.235Z,6.60
2019-05-16T21:56:06.997Z,6.00
2019-05-16T21:58:39.327Z,6.97
2019-05-16T22:01:10.865Z,6.97
2019-05-16T22:03:41.688Z,7.37
2019-05-16T22:06:10.929Z,7.73
2019-05-16T22:08:41.559Z,5.97
2019-05-16T22:11:10.655Z,7.13
2019-05-16T22:13:40.130Z,7.47
2019-05-16T22:16:10.695Z,6.40
2019-05-16T22:18:43.038Z,6.23
2019-05-16T22:21:13.471Z,7.17
2019-05-16T22:23:46.527Z,6.90
2019-05-16T22:26:34.785Z,6.40
2019-05-16T22:29:06.679Z,6.03
2019-05-16T22:31:37.668Z,6.13
2019-05-16T22:34:10.582Z,6.83
2019-05-16T22:36:41.142Z,6.50
2019-05-16T22:39:13.082Z,7.33
2019-05-16T22:41:46.608Z,7.60
2019-05-16T22:44:17.636Z,7.20
2019-05-16T22:46:46.897Z,7.87
2019-05-16T22:49:16.978Z,8.43
2019-05-16T22:51:49.379Z,7.97
2019-05-16T22:54:22.947Z,8.30
2019-05-16T22:56:52.025Z,7.10
2019-05-16T22:59:21.732Z,8.03
2019-05-16T23:01:51.211Z,7.33
2019-05-16T23:04:21.001Z,7.17
2019-05-16T23:06:50.078Z,7.90
2019-05-16T23:09:20.060Z,7.57
2019-05-16T23:11:49.167Z,7.70
2019-05-16T23:14:21.199Z,7.87
2019-05-16T23:16:50.272Z,8.80
2019-05-16T23:19:19.351Z,7.33
2019-05-16T23:21:48.816Z,8.53
2019-05-16T23:24:21.154Z,8.67
2019-05-16T23:26:52.515Z,7.77
2019-05-16T23:29:21.601Z,7.93
2019-05-16T23:31:50.974Z,8.13
2019-05-16T23:34:22.645Z,7.97
2019-05-16T23:36:53.108Z,8.37
2019-05-16T23:39:26.375Z,10.10
2019-05-16T23:41:59.164Z,9.60
2019-05-16T23:44:28.238Z,7.97
2019-05-16T23:46:59.730Z,8.20
2019-05-16T23:49:29.733Z,8.03
2019-05-16T23:51:58.854Z,9.20
2019-05-16T23:54:30.934Z,7.80
2019-05-16T23:57:02.741Z,8.37
2019-05-16T23:59:36.696Z,7.47
